sensor_id;sensor_type;location;lat;lon;timestamp;P1;durP1;ratioP1;P2;durP2;ratioP2
18308;SDS011;9280;50.276;18.650;2022-08-04T00:02:02;32.90;;;19.27;;
18308;SDS011;9280;50.276;18.650;2022-08-04T00:04:58;26.87;;;18.43;;
18308;SDS011;9280;50.276;18.650;2022-08-04T00:07:49;25.43;;;19.07;;
18308;SDS011;9280;50.276;18.650;2022-08-04T00:10:47;26.97;;;19.43;;
18308;SDS011;9280;50.276;18.650;2022-08-04T00:13:36;27.20;;;18.97;;
18308;SDS011;9280;50.276;18.650;2022-08-04T00:16:24;28.00;;;19.63;;
18308;SDS011;9280;50.276;18.650;2022-08-04T00:19:20;28.93;;;19.77;;
18308;SDS011;9280;50.276;18.650;2022-08-04T00:22:13;28.47;;;19.63;;
18308;SDS011;9280;50.276;18.650;2022-08-04T00:25:02;29.43;;;20.73;;
18308;SDS011;9280;50.276;18.650;2022-08-04T00:27:50;30.07;;;19.27;;
18308;SDS011;9280;50.276;18.650;2022-08-04T00:30:36;28.77;;;19.90;;
18308;SDS011;9280;50.276;18.650;2022-08-04T00:33:25;27.97;;;19.10;;
18308;SDS011;9280;50.276;18.650;2022-08-04T00:36:13;30.03;;;19.47;;
18308;SDS011;9280;50.276;18.650;2022-08-04T00:39:01;29.40;;;19.87;;
18308;SDS011;9280;50.276;18.650;2022-08-04T00:41:50;29.50;;;19.77;;
18308;SDS011;9280;50.276;18.650;2022-08-04T00:44:49;30.57;;;21.17;;
18308;SDS011;9280;50.276;18.650;2022-08-04T00:47:51;33.90;;;21.20;;
18308;SDS011;9280;50.276;18.650;2022-08-04T00:50:49;31.63;;;21.40;;
18308;SDS011;9280;50.276;18.650;2022-08-04T00:53:50;30.87;;;21.00;;
18308;SDS011;9280;50.276;18.650;2022-08-04T00:56:56;33.83;;;22.37;;
18308;SDS011;9280;50.276;18.650;2022-08-04T00:59:56;29.67;;;21.10;;
18308;SDS011;9280;50.276;18.650;2022-08-04T01:02:54;34.73;;;22.30;;
18308;SDS011;9280;50.276;18.650;2022-08-04T01:05:52;35.07;;;21.60;;
18308;SDS011;9280;50.276;18.650;2022-08-04T01:08:54;32.00;;;21.37;;
18308;SDS011;9280;50.276;18.650;2022-08-04T01:12:04;34.30;;;20.93;;
18308;SDS011;9280;50.276;18.650;2022-08-04T01:15:04;34.77;;;21.70;;
18308;SDS011;9280;50.276;18.650;2022-08-04T01:17:58;28.80;;;21.47;;
18308;SDS011;9280;50.276;18.650;2022-08-04T01:20:51;29.73;;;21.40;;
18308;SDS011;9280;50.276;18.650;2022-08-04T01:23:59;38.63;;;23.53;;
18308;SDS011;9280;50.276;18.650;2022-08-04T01:27:00;36.40;;;22.83;;
18308;SDS011;9280;50.276;18.650;2022-08-04T01:29:50;31.30;;;21.77;;
18308;SDS011;9280;50.276;18.650;2022-08-04T01:32:42;34.63;;;21.53;;
18308;SDS011;9280;50.276;18.650;2022-08-04T01:35:34;34.87;;;22.83;;
18308;SDS011;9280;50.276;18.650;2022-08-04T01:38:27;35.47;;;22.10;;
18308;SDS011;9280;50.276;18.650;2022-08-04T01:41:14;34.03;;;21.60;;
18308;SDS011;9280;50.276;18.650;2022-08-04T01:44:04;34.00;;;21.37;;
18308;SDS011;9280;50.276;18.650;2022-08-04T01:46:54;31.00;;;21.33;;
18308;SDS011;9280;50.276;18.650;2022-08-04T01:49:41;32.10;;;20.97;;
18308;SDS011;9280;50.276;18.650;2022-08-04T01:52:31;29.97;;;21.73;;
18308;SDS011;9280;50.276;18.650;2022-08-04T01:55:20;33.13;;;22.17;;
18308;SDS011;9280;50.276;18.650;2022-08-04T01:58:07;31.77;;;22.47;;
18308;SDS011;9280;50.276;18.650;2022-08-04T02:00:56;29.60;;;22.33;;
18308;SDS011;9280;50.276;18.650;2022-08-04T02:03:47;33.03;;;22.03;;
18308;SDS011;9280;50.276;18.650;2022-08-04T02:06:36;31.13;;;21.20;;
18308;SDS011;9280;50.276;18.650;2022-08-04T02:09:34;33.00;;;23.50;;
18308;SDS011;9280;50.276;18.650;2022-08-04T02:12:26;31.70;;;22.23;;
18308;SDS011;9280;50.276;18.650;2022-08-04T02:15:29;32.63;;;22.93;;
18308;SDS011;9280;50.276;18.650;2022-08-04T02:18:22;31.33;;;22.80;;
18308;SDS011;9280;50.276;18.650;2022-08-04T02:21:10;33.67;;;23.27;;
18308;SDS011;9280;50.276;18.650;2022-08-04T02:24:02;33.37;;;22.43;;
18308;SDS011;9280;50.276;18.650;2022-08-04T02:26:51;29.90;;;22.50;;
18308;SDS011;9280;50.276;18.650;2022-08-04T02:29:45;37.80;;;23.40;;
18308;SDS011;9280;50.276;18.650;2022-08-04T02:32:38;39.37;;;23.80;;
18308;SDS011;9280;50.276;18.650;2022-08-04T02:35:28;34.97;;;22.90;;
18308;SDS011;9280;50.276;18.650;2022-08-04T02:38:23;30.73;;;23.43;;
18308;SDS011;9280;50.276;18.650;2022-08-04T02:41:18;32.47;;;23.93;;
18308;SDS011;9280;50.276;18.650;2022-08-04T02:44:06;33.83;;;23.77;;
18308;SDS011;9280;50.276;18.650;2022-08-04T02:46:54;34.03;;;23.50;;
18308;SDS011;9280;50.276;18.650;2022-08-04T02:49:41;35.50;;;23.13;;
18308;SDS011;9280;50.276;18.650;2022-08-04T02:52:31;31.10;;;22.63;;
18308;SDS011;9280;50.276;18.650;2022-08-04T02:55:20;36.97;;;23.40;;
18308;SDS011;9280;50.276;18.650;2022-08-04T02:58:07;40.40;;;23.43;;
18308;SDS011;9280;50.276;18.650;2022-08-04T03:00:54;35.33;;;24.27;;
18308;SDS011;9280;50.276;18.650;2022-08-04T03:03:43;32.93;;;24.70;;
18308;SDS011;9280;50.276;18.650;2022-08-04T03:06:51;36.13;;;23.80;;
18308;SDS011;9280;50.276;18.650;2022-08-04T03:10:04;34.67;;;24.17;;
18308;SDS011;9280;50.276;18.650;2022-08-04T03:13:30;33.53;;;24.07;;
18308;SDS011;9280;50.276;18.650;2022-08-04T03:16:27;38.47;;;22.83;;
18308;SDS011;9280;50.276;18.650;2022-08-04T03:26:18;37.43;;;24.90;;
18308;SDS011;9280;50.276;18.650;2022-08-04T03:39:24;35.27;;;23.97;;
18308;SDS011;9280;50.276;18.650;2022-08-04T03:49:37;44.43;;;25.07;;
18308;SDS011;9280;50.276;18.650;2022-08-04T03:56:13;33.63;;;23.93;;
18308;SDS011;9280;50.276;18.650;2022-08-04T03:59:26;35.07;;;24.37;;
18308;SDS011;9280;50.276;18.650;2022-08-04T04:06:02;37.63;;;24.27;;
18308;SDS011;9280;50.276;18.650;2022-08-04T04:09:22;36.60;;;23.47;;
18308;SDS011;9280;50.276;18.650;2022-08-04T04:12:32;31.27;;;22.23;;
18308;SDS011;9280;50.276;18.650;2022-08-04T04:15:33;36.27;;;24.57;;
18308;SDS011;9280;50.276;18.650;2022-08-04T04:18:32;40.53;;;24.30;;
18308;SDS011;9280;50.276;18.650;2022-08-04T04:21:42;36.67;;;22.23;;
18308;SDS011;9280;50.276;18.650;2022-08-04T04:24:45;38.10;;;25.60;;
18308;SDS011;9280;50.276;18.650;2022-08-04T04:27:45;35.77;;;25.13;;
18308;SDS011;9280;50.276;18.650;2022-08-04T04:30:41;38.00;;;26.27;;
18308;SDS011;9280;50.276;18.650;2022-08-04T04:33:42;34.67;;;24.57;;
18308;SDS011;9280;50.276;18.650;2022-08-04T04:36:39;33.53;;;23.77;;
18308;SDS011;9280;50.276;18.650;2022-08-04T04:39:39;38.03;;;25.40;;
18308;SDS011;9280;50.276;18.650;2022-08-04T04:42:37;35.87;;;25.07;;
18308;SDS011;9280;50.276;18.650;2022-08-04T04:45:37;39.43;;;25.60;;
18308;SDS011;9280;50.276;18.650;2022-08-04T04:48:35;41.87;;;25.87;;
18308;SDS011;9280;50.276;18.650;2022-08-04T04:51:32;38.47;;;25.20;;
18308;SDS011;9280;50.276;18.650;2022-08-04T04:54:31;43.23;;;26.17;;
18308;SDS011;9280;50.276;18.650;2022-08-04T04:57:20;39.50;;;27.03;;
18308;SDS011;9280;50.276;18.650;2022-08-04T05:00:09;42.03;;;25.53;;
18308;SDS011;9280;50.276;18.650;2022-08-04T05:06:16;40.60;;;25.50;;
18308;SDS011;9280;50.276;18.650;2022-08-04T05:09:17;40.60;;;25.27;;
18308;SDS011;9280;50.276;18.650;2022-08-04T05:12:29;43.67;;;27.13;;
18308;SDS011;9280;50.276;18.650;2022-08-04T05:15:30;47.00;;;25.80;;
18308;SDS011;9280;50.276;18.650;2022-08-04T05:18:20;39.50;;;25.87;;
18308;SDS011;9280;50.276;18.650;2022-08-04T05:21:13;42.37;;;26.60;;
18308;SDS011;9280;50.276;18.650;2022-08-04T05:24:08;43.63;;;26.77;;
18308;SDS011;9280;50.276;18.650;2022-08-04T05:26:58;44.60;;;26.90;;
18308;SDS011;9280;50.276;18.650;2022-08-04T05:29:52;41.60;;;26.60;;
18308;SDS011;9280;50.276;18.650;2022-08-04T05:32:44;37.47;;;27.20;;
18308;SDS011;9280;50.276;18.650;2022-08-04T05:35:35;39.83;;;26.57;;
18308;SDS011;9280;50.276;18.650;2022-08-04T05:38:30;40.27;;;26.23;;
18308;SDS011;9280;50.276;18.650;2022-08-04T05:41:20;41.53;;;26.53;;
18308;SDS011;9280;50.276;18.650;2022-08-04T05:44:07;38.30;;;26.17;;
18308;SDS011;9280;50.276;18.650;2022-08-04T05:46:56;37.87;;;26.23;;
18308;SDS011;9280;50.276;18.650;2022-08-04T05:49:42;45.93;;;25.83;;
18308;SDS011;9280;50.276;18.650;2022-08-04T05:52:29;33.53;;;24.27;;
18308;SDS011;9280;50.276;18.650;2022-08-04T05:55:16;38.67;;;24.60;;
18308;SDS011;9280;50.276;18.650;2022-08-04T05:58:03;36.37;;;24.20;;
18308;SDS011;9280;50.276;18.650;2022-08-04T06:00:50;40.43;;;23.63;;
18308;SDS011;9280;50.276;18.650;2022-08-04T06:03:39;37.73;;;22.77;;
18308;SDS011;9280;50.276;18.650;2022-08-04T06:06:26;32.73;;;23.03;;
18308;SDS011;9280;50.276;18.650;2022-08-04T06:09:14;38.80;;;24.83;;
18308;SDS011;9280;50.276;18.650;2022-08-04T06:12:01;42.60;;;22.70;;
18308;SDS011;9280;50.276;18.650;2022-08-04T06:14:52;33.13;;;20.57;;
18308;SDS011;9280;50.276;18.650;2022-08-04T06:17:41;31.60;;;21.53;;
18308;SDS011;9280;50.276;18.650;2022-08-04T06:20:34;40.27;;;23.13;;
18308;SDS011;9280;50.276;18.650;2022-08-04T06:23:21;34.63;;;22.10;;
18308;SDS011;9280;50.276;18.650;2022-08-04T06:26:10;36.33;;;21.57;;
18308;SDS011;9280;50.276;18.650;2022-08-04T06:29:02;28.33;;;19.37;;
18308;SDS011;9280;50.276;18.650;2022-08-04T06:31:53;33.53;;;19.77;;
18308;SDS011;9280;50.276;18.650;2022-08-04T06:34:45;31.13;;;17.80;;
18308;SDS011;9280;50.276;18.650;2022-08-04T06:37:35;29.03;;;19.70;;
18308;SDS011;9280;50.276;18.650;2022-08-04T06:40:22;30.20;;;17.50;;
18308;SDS011;9280;50.276;18.650;2022-08-04T06:43:09;24.13;;;17.03;;
18308;SDS011;9280;50.276;18.650;2022-08-04T06:45:56;20.90;;;17.17;;
18308;SDS011;9280;50.276;18.650;2022-08-04T06:48:46;24.60;;;17.67;;
18308;SDS011;9280;50.276;18.650;2022-08-04T06:51:34;25.10;;;18.07;;
18308;SDS011;9280;50.276;18.650;2022-08-04T06:54:23;29.43;;;18.27;;
18308;SDS011;9280;50.276;18.650;2022-08-04T06:57:09;27.00;;;17.03;;
18308;SDS011;9280;50.276;18.650;2022-08-04T06:59:58;20.50;;;16.03;;
18308;SDS011;9280;50.276;18.650;2022-08-04T07:02:47;24.33;;;15.10;;
18308;SDS011;9280;50.276;18.650;2022-08-04T07:05:34;20.77;;;14.83;;
18308;SDS011;9280;50.276;18.650;2022-08-04T07:08:21;27.53;;;15.47;;
18308;SDS011;9280;50.276;18.650;2022-08-04T07:11:09;18.80;;;14.50;;
18308;SDS011;9280;50.276;18.650;2022-08-04T07:13:55;14.47;;;12.30;;
18308;SDS011;9280;50.276;18.650;2022-08-04T07:16:43;18.87;;;13.10;;
18308;SDS011;9280;50.276;18.650;2022-08-04T07:19:33;23.47;;;15.07;;
18308;SDS011;9280;50.276;18.650;2022-08-04T07:22:19;23.80;;;14.87;;
18308;SDS011;9280;50.276;18.650;2022-08-04T07:25:07;17.60;;;12.13;;
18308;SDS011;9280;50.276;18.650;2022-08-04T07:27:57;17.70;;;12.40;;
18308;SDS011;9280;50.276;18.650;2022-08-04T07:30:43;21.70;;;12.90;;
18308;SDS011;9280;50.276;18.650;2022-08-04T07:33:31;21.97;;;13.50;;
18308;SDS011;9280;50.276;18.650;2022-08-04T07:36:19;21.43;;;13.73;;
18308;SDS011;9280;50.276;18.650;2022-08-04T07:39:04;17.97;;;12.53;;
18308;SDS011;9280;50.276;18.650;2022-08-04T07:41:51;15.90;;;11.83;;
18308;SDS011;9280;50.276;18.650;2022-08-04T07:44:39;21.37;;;11.27;;
18308;SDS011;9280;50.276;18.650;2022-08-04T07:47:25;17.83;;;11.73;;
18308;SDS011;9280;50.276;18.650;2022-08-04T07:50:11;23.80;;;11.37;;
18308;SDS011;9280;50.276;18.650;2022-08-04T07:53:00;14.70;;;11.07;;
18308;SDS011;9280;50.276;18.650;2022-08-04T07:55:47;14.80;;;11.43;;
18308;SDS011;9280;50.276;18.650;2022-08-04T07:58:33;13.33;;;11.23;;
18308;SDS011;9280;50.276;18.650;2022-08-04T08:01:21;15.87;;;11.03;;
18308;SDS011;9280;50.276;18.650;2022-08-04T08:04:09;15.93;;;12.00;;
18308;SDS011;9280;50.276;18.650;2022-08-04T08:06:56;15.00;;;10.43;;
18308;SDS011;9280;50.276;18.650;2022-08-04T08:09:43;15.40;;;10.53;;
18308;SDS011;9280;50.276;18.650;2022-08-04T08:12:29;18.20;;;10.07;;
18308;SDS011;9280;50.276;18.650;2022-08-04T08:15:17;13.13;;;9.87;;
18308;SDS011;9280;50.276;18.650;2022-08-04T08:18:06;13.53;;;9.67;;
18308;SDS011;9280;50.276;18.650;2022-08-04T08:20:52;10.97;;;9.40;;
18308;SDS011;9280;50.276;18.650;2022-08-04T08:23:38;10.43;;;9.13;;
18308;SDS011;9280;50.276;18.650;2022-08-04T08:26:25;13.40;;;9.90;;
18308;SDS011;9280;50.276;18.650;2022-08-04T08:29:11;12.33;;;9.53;;
18308;SDS011;9280;50.276;18.650;2022-08-04T08:31:59;12.77;;;9.60;;
18308;SDS011;9280;50.276;18.650;2022-08-04T08:34:47;13.47;;;10.73;;
18308;SDS011;9280;50.276;18.650;2022-08-04T08:37:34;14.67;;;10.00;;
18308;SDS011;9280;50.276;18.650;2022-08-04T08:40:29;11.73;;;9.27;;
18308;SDS011;9280;50.276;18.650;2022-08-04T08:43:23;12.33;;;9.03;;
18308;SDS011;9280;50.276;18.650;2022-08-04T08:49:46;13.73;;;8.47;;
18308;SDS011;9280;50.276;18.650;2022-08-04T08:52:53;10.57;;;8.50;;
18308;SDS011;9280;50.276;18.650;2022-08-04T08:56:01;9.53;;;8.27;;
18308;SDS011;9280;50.276;18.650;2022-08-04T08:59:00;13.70;;;9.60;;
18308;SDS011;9280;50.276;18.650;2022-08-04T09:02:04;9.33;;;8.33;;
18308;SDS011;9280;50.276;18.650;2022-08-04T09:05:10;15.30;;;7.93;;
18308;SDS011;9280;50.276;18.650;2022-08-04T09:08:14;11.93;;;8.20;;
18308;SDS011;9280;50.276;18.650;2022-08-04T09:11:13;9.37;;;7.87;;
18308;SDS011;9280;50.276;18.650;2022-08-04T09:14:04;14.43;;;7.83;;
18308;SDS011;9280;50.276;18.650;2022-08-04T09:16:55;13.80;;;8.40;;
18308;SDS011;9280;50.276;18.650;2022-08-04T09:19:49;16.63;;;8.60;;
18308;SDS011;9280;50.276;18.650;2022-08-04T09:22:44;11.53;;;8.27;;
18308;SDS011;9280;50.276;18.650;2022-08-04T09:25:37;12.33;;;7.80;;
18308;SDS011;9280;50.276;18.650;2022-08-04T09:28:28;14.67;;;7.50;;
18308;SDS011;9280;50.276;18.650;2022-08-04T09:31:27;10.67;;;8.10;;
18308;SDS011;9280;50.276;18.650;2022-08-04T09:34:19;7.93;;;7.13;;
18308;SDS011;9280;50.276;18.650;2022-08-04T09:37:14;9.73;;;7.43;;
18308;SDS011;9280;50.276;18.650;2022-08-04T09:40:13;11.83;;;7.33;;
18308;SDS011;9280;50.276;18.650;2022-08-04T09:43:08;8.37;;;7.10;;
18308;SDS011;9280;50.276;18.650;2022-08-04T09:46:03;10.47;;;7.73;;
18308;SDS011;9280;50.276;18.650;2022-08-04T09:48:55;10.93;;;7.57;;
18308;SDS011;9280;50.276;18.650;2022-08-04T09:51:48;12.83;;;8.00;;
18308;SDS011;9280;50.276;18.650;2022-08-04T09:54:44;13.13;;;7.90;;
18308;SDS011;9280;50.276;18.650;2022-08-04T09:57:40;9.23;;;8.20;;
18308;SDS011;9280;50.276;18.650;2022-08-04T10:00:38;8.33;;;7.47;;
18308;SDS011;9280;50.276;18.650;2022-08-04T10:03:28;8.43;;;7.07;;
18308;SDS011;9280;50.276;18.650;2022-08-04T10:06:26;14.97;;;6.73;;
18308;SDS011;9280;50.276;18.650;2022-08-04T10:09:27;7.07;;;6.20;;
18308;SDS011;9280;50.276;18.650;2022-08-04T10:12:26;6.97;;;5.47;;
18308;SDS011;9280;50.276;18.650;2022-08-04T10:15:18;9.83;;;5.97;;
18308;SDS011;9280;50.276;18.650;2022-08-04T10:18:15;8.73;;;6.37;;
18308;SDS011;9280;50.276;18.650;2022-08-04T10:21:14;9.27;;;5.67;;
18308;SDS011;9280;50.276;18.650;2022-08-04T10:24:09;20.10;;;5.20;;
18308;SDS011;9280;50.276;18.650;2022-08-04T10:27:07;7.43;;;5.47;;
18308;SDS011;9280;50.276;18.650;2022-08-04T10:29:57;9.93;;;6.00;;
18308;SDS011;9280;50.276;18.650;2022-08-04T10:32:57;8.63;;;5.53;;
18308;SDS011;9280;50.276;18.650;2022-08-04T10:35:49;6.23;;;5.37;;
18308;SDS011;9280;50.276;18.650;2022-08-04T10:38:41;8.57;;;5.50;;
18308;SDS011;9280;50.276;18.650;2022-08-04T10:41:36;7.97;;;5.60;;
18308;SDS011;9280;50.276;18.650;2022-08-04T10:44:27;7.50;;;5.83;;
18308;SDS011;9280;50.276;18.650;2022-08-04T10:47:23;9.27;;;5.63;;
18308;SDS011;9280;50.276;18.650;2022-08-04T10:50:17;7.27;;;5.77;;
18308;SDS011;9280;50.276;18.650;2022-08-04T10:53:08;9.20;;;5.70;;
18308;SDS011;9280;50.276;18.650;2022-08-04T10:56:00;8.23;;;5.97;;
18308;SDS011;9280;50.276;18.650;2022-08-04T10:58:48;8.07;;;5.80;;
18308;SDS011;9280;50.276;18.650;2022-08-04T11:01:39;6.63;;;5.43;;
18308;SDS011;9280;50.276;18.650;2022-08-04T11:04:30;6.27;;;5.50;;
18308;SDS011;9280;50.276;18.650;2022-08-04T11:07:26;7.43;;;6.17;;
18308;SDS011;9280;50.276;18.650;2022-08-04T11:10:17;6.23;;;5.63;;
18308;SDS011;9280;50.276;18.650;2022-08-04T11:13:08;7.00;;;5.20;;
18308;SDS011;9280;50.276;18.650;2022-08-04T11:15:56;12.73;;;5.47;;
18308;SDS011;9280;50.276;18.650;2022-08-04T11:18:48;7.37;;;5.37;;
18308;SDS011;9280;50.276;18.650;2022-08-04T11:21:48;9.00;;;5.37;;
18308;SDS011;9280;50.276;18.650;2022-08-04T11:24:43;4.80;;;4.37;;
18308;SDS011;9280;50.276;18.650;2022-08-04T11:27:36;8.40;;;5.07;;
18308;SDS011;9280;50.276;18.650;2022-08-04T11:30:29;5.20;;;4.73;;
18308;SDS011;9280;50.276;18.650;2022-08-04T11:33:20;6.00;;;5.17;;
18308;SDS011;9280;50.276;18.650;2022-08-04T11:36:19;6.03;;;4.70;;
18308;SDS011;9280;50.276;18.650;2022-08-04T11:39:11;7.97;;;5.47;;
18308;SDS011;9280;50.276;18.650;2022-08-04T11:42:06;9.70;;;6.10;;
18308;SDS011;9280;50.276;18.650;2022-08-04T11:45:03;13.50;;;4.97;;
18308;SDS011;9280;50.276;18.650;2022-08-04T11:47:53;6.37;;;5.10;;
18308;SDS011;9280;50.276;18.650;2022-08-04T11:50:43;8.50;;;5.80;;
18308;SDS011;9280;50.276;18.650;2022-08-04T11:53:34;6.73;;;5.40;;
18308;SDS011;9280;50.276;18.650;2022-08-04T11:56:22;4.87;;;4.40;;
18308;SDS011;9280;50.276;18.650;2022-08-04T11:59:10;5.27;;;4.77;;
18308;SDS011;9280;50.276;18.650;2022-08-04T12:02:00;6.00;;;4.50;;
18308;SDS011;9280;50.276;18.650;2022-08-04T12:04:55;5.97;;;5.47;;
18308;SDS011;9280;50.276;18.650;2022-08-04T12:07:44;7.87;;;5.27;;
18308;SDS011;9280;50.276;18.650;2022-08-04T12:10:44;6.07;;;5.23;;
18308;SDS011;9280;50.276;18.650;2022-08-04T12:13:49;6.33;;;5.00;;
18308;SDS011;9280;50.276;18.650;2022-08-04T12:16:44;7.07;;;5.10;;
18308;SDS011;9280;50.276;18.650;2022-08-04T12:19:37;4.90;;;4.43;;
18308;SDS011;9280;50.276;18.650;2022-08-04T12:22:30;6.30;;;4.77;;
18308;SDS011;9280;50.276;18.650;2022-08-04T12:25:20;6.20;;;4.60;;
18308;SDS011;9280;50.276;18.650;2022-08-04T12:28:14;5.33;;;4.47;;
18308;SDS011;9280;50.276;18.650;2022-08-04T12:31:08;7.60;;;4.30;;
18308;SDS011;9280;50.276;18.650;2022-08-04T12:34:00;9.13;;;4.90;;
18308;SDS011;9280;50.276;18.650;2022-08-04T12:36:53;6.63;;;4.70;;
18308;SDS011;9280;50.276;18.650;2022-08-04T12:39:45;5.53;;;4.20;;
18308;SDS011;9280;50.276;18.650;2022-08-04T12:42:35;4.63;;;4.23;;
18308;SDS011;9280;50.276;18.650;2022-08-04T12:45:31;4.40;;;4.00;;
18308;SDS011;9280;50.276;18.650;2022-08-04T12:48:18;7.67;;;4.20;;
18308;SDS011;9280;50.276;18.650;2022-08-04T12:51:07;5.83;;;3.60;;
18308;SDS011;9280;50.276;18.650;2022-08-04T12:53:54;4.87;;;4.30;;
18308;SDS011;9280;50.276;18.650;2022-08-04T12:56:41;4.57;;;4.17;;
18308;SDS011;9280;50.276;18.650;2022-08-04T12:59:36;4.53;;;3.97;;
18308;SDS011;9280;50.276;18.650;2022-08-04T13:02:24;6.17;;;4.30;;
18308;SDS011;9280;50.276;18.650;2022-08-04T13:05:14;5.30;;;3.80;;
18308;SDS011;9280;50.276;18.650;2022-08-04T13:08:02;9.23;;;4.30;;
18308;SDS011;9280;50.276;18.650;2022-08-04T13:10:51;5.97;;;4.37;;
18308;SDS011;9280;50.276;18.650;2022-08-04T13:13:41;5.80;;;3.47;;
18308;SDS011;9280;50.276;18.650;2022-08-04T13:16:29;4.57;;;4.00;;
18308;SDS011;9280;50.276;18.650;2022-08-04T13:19:16;8.97;;;3.83;;
18308;SDS011;9280;50.276;18.650;2022-08-04T13:22:03;4.73;;;3.83;;
18308;SDS011;9280;50.276;18.650;2022-08-04T13:24:51;9.50;;;4.00;;
18308;SDS011;9280;50.276;18.650;2022-08-04T13:27:38;6.27;;;3.63;;
18308;SDS011;9280;50.276;18.650;2022-08-04T13:30:30;8.87;;;3.37;;
18308;SDS011;9280;50.276;18.650;2022-08-04T13:33:17;26.13;;;4.30;;
18308;SDS011;9280;50.276;18.650;2022-08-04T13:36:06;5.63;;;3.40;;
18308;SDS011;9280;50.276;18.650;2022-08-04T13:38:54;6.17;;;3.43;;
18308;SDS011;9280;50.276;18.650;2022-08-04T13:41:45;3.73;;;3.20;;
18308;SDS011;9280;50.276;18.650;2022-08-04T13:44:37;4.13;;;3.23;;
18308;SDS011;9280;50.276;18.650;2022-08-04T13:47:28;6.90;;;3.13;;
18308;SDS011;9280;50.276;18.650;2022-08-04T13:50:17;5.53;;;3.50;;
18308;SDS011;9280;50.276;18.650;2022-08-04T13:53:06;3.90;;;3.30;;
18308;SDS011;9280;50.276;18.650;2022-08-04T13:55:53;4.22;;;3.20;;
18308;SDS011;9280;50.276;18.650;2022-08-04T13:58:44;4.78;;;3.30;;
18308;SDS011;9280;50.276;18.650;2022-08-04T14:01:32;6.18;;;3.10;;
18308;SDS011;9280;50.276;18.650;2022-08-04T14:04:21;8.13;;;3.97;;
18308;SDS011;9280;50.276;18.650;2022-08-04T14:07:11;5.95;;;3.42;;
18308;SDS011;9280;50.276;18.650;2022-08-04T14:09:59;9.43;;;3.45;;
18308;SDS011;9280;50.276;18.650;2022-08-04T14:12:53;3.78;;;3.10;;
18308;SDS011;9280;50.276;18.650;2022-08-04T14:15:41;6.20;;;2.90;;
18308;SDS011;9280;50.276;18.650;2022-08-04T14:18:29;3.97;;;3.58;;
18308;SDS011;9280;50.276;18.650;2022-08-04T14:21:17;5.82;;;3.38;;
18308;SDS011;9280;50.276;18.650;2022-08-04T14:24:03;5.10;;;3.30;;
18308;SDS011;9280;50.276;18.650;2022-08-04T14:26:50;7.07;;;3.00;;
18308;SDS011;9280;50.276;18.650;2022-08-04T14:29:37;7.15;;;3.17;;
18308;SDS011;9280;50.276;18.650;2022-08-04T14:32:26;7.72;;;2.95;;
18308;SDS011;9280;50.276;18.650;2022-08-04T14:35:12;3.45;;;2.72;;
18308;SDS011;9280;50.276;18.650;2022-08-04T14:37:59;2.97;;;2.78;;
18308;SDS011;9280;50.276;18.650;2022-08-04T14:40:47;3.60;;;2.55;;
18308;SDS011;9280;50.276;18.650;2022-08-04T14:43:39;4.53;;;2.80;;
18308;SDS011;9280;50.276;18.650;2022-08-04T14:46:27;9.32;;;3.05;;
18308;SDS011;9280;50.276;18.650;2022-08-04T14:49:15;2.95;;;2.70;;
18308;SDS011;9280;50.276;18.650;2022-08-04T14:52:01;6.25;;;2.92;;
18308;SDS011;9280;50.276;18.650;2022-08-04T14:54:46;3.83;;;2.85;;
18308;SDS011;9280;50.276;18.650;2022-08-04T14:57:34;3.58;;;2.70;;
18308;SDS011;9280;50.276;18.650;2022-08-04T15:00:23;4.95;;;3.00;;
18308;SDS011;9280;50.276;18.650;2022-08-04T15:03:10;8.90;;;3.20;;
18308;SDS011;9280;50.276;18.650;2022-08-04T15:05:58;6.32;;;3.28;;
18308;SDS011;9280;50.276;18.650;2022-08-04T15:08:46;7.50;;;2.63;;
18308;SDS011;9280;50.276;18.650;2022-08-04T15:11:33;5.40;;;2.78;;
18308;SDS011;9280;50.276;18.650;2022-08-04T15:14:20;4.50;;;3.00;;
18308;SDS011;9280;50.276;18.650;2022-08-04T15:17:07;5.78;;;3.00;;
18308;SDS011;9280;50.276;18.650;2022-08-04T15:19:54;6.13;;;2.78;;
18308;SDS011;9280;50.276;18.650;2022-08-04T15:22:42;6.22;;;2.80;;
18308;SDS011;9280;50.276;18.650;2022-08-04T15:25:30;8.52;;;2.92;;
18308;SDS011;9280;50.276;18.650;2022-08-04T15:28:18;2.90;;;2.63;;
18308;SDS011;9280;50.276;18.650;2022-08-04T15:31:07;4.40;;;2.65;;
18308;SDS011;9280;50.276;18.650;2022-08-04T15:33:54;3.10;;;2.90;;
18308;SDS011;9280;50.276;18.650;2022-08-04T15:36:43;2.90;;;2.47;;
18308;SDS011;9280;50.276;18.650;2022-08-04T15:39:42;2.67;;;2.50;;
18308;SDS011;9280;50.276;18.650;2022-08-04T15:42:35;5.50;;;2.90;;
18308;SDS011;9280;50.276;18.650;2022-08-04T15:45:28;10.70;;;2.88;;
18308;SDS011;9280;50.276;18.650;2022-08-04T15:48:31;4.97;;;3.20;;
18308;SDS011;9280;50.276;18.650;2022-08-04T15:51:23;9.40;;;3.42;;
18308;SDS011;9280;50.276;18.650;2022-08-04T15:54:20;6.35;;;3.50;;
18308;SDS011;9280;50.276;18.650;2022-08-04T15:57:08;11.77;;;3.33;;
18308;SDS011;9280;50.276;18.650;2022-08-04T15:59:57;6.60;;;3.30;;
18308;SDS011;9280;50.276;18.650;2022-08-04T16:02:45;7.20;;;3.60;;
18308;SDS011;9280;50.276;18.650;2022-08-04T16:05:31;7.80;;;3.47;;
18308;SDS011;9280;50.276;18.650;2022-08-04T16:08:19;7.53;;;3.63;;
18308;SDS011;9280;50.276;18.650;2022-08-04T16:11:05;8.98;;;2.90;;
18308;SDS011;9280;50.276;18.650;2022-08-04T16:16:55;3.60;;;3.30;;
18308;SDS011;9280;50.276;18.650;2022-08-04T16:20:02;11.80;;;3.88;;
18308;SDS011;9280;50.276;18.650;2022-08-04T16:22:54;7.45;;;3.88;;
18308;SDS011;9280;50.276;18.650;2022-08-04T16:25:45;6.57;;;3.65;;
18308;SDS011;9280;50.276;18.650;2022-08-04T16:28:36;3.92;;;3.20;;
18308;SDS011;9280;50.276;18.650;2022-08-04T16:31:25;5.00;;;3.05;;
18308;SDS011;9280;50.276;18.650;2022-08-04T16:34:11;7.80;;;4.18;;
18308;SDS011;9280;50.276;18.650;2022-08-04T16:37:03;3.58;;;3.28;;
18308;SDS011;9280;50.276;18.650;2022-08-04T16:39:50;6.50;;;3.75;;
18308;SDS011;9280;50.276;18.650;2022-08-04T16:43:16;3.58;;;3.08;;
18308;SDS011;9280;50.276;18.650;2022-08-04T16:46:03;5.45;;;3.40;;
18308;SDS011;9280;50.276;18.650;2022-08-04T16:49:04;5.63;;;3.72;;
18308;SDS011;9280;50.276;18.650;2022-08-04T16:51:51;3.53;;;3.05;;
18308;SDS011;9280;50.276;18.650;2022-08-04T16:54:37;8.63;;;3.65;;
18308;SDS011;9280;50.276;18.650;2022-08-04T16:57:23;4.15;;;3.30;;
18308;SDS011;9280;50.276;18.650;2022-08-04T17:00:10;4.22;;;3.15;;
18308;SDS011;9280;50.276;18.650;2022-08-04T17:02:56;3.97;;;3.10;;
18308;SDS011;9280;50.276;18.650;2022-08-04T17:05:43;6.05;;;3.20;;
18308;SDS011;9280;50.276;18.650;2022-08-04T17:08:30;4.35;;;3.30;;
18308;SDS011;9280;50.276;18.650;2022-08-04T17:11:16;4.00;;;3.60;;
18308;SDS011;9280;50.276;18.650;2022-08-04T17:14:02;4.07;;;3.70;;
18308;SDS011;9280;50.276;18.650;2022-08-04T17:16:49;5.80;;;3.87;;
18308;SDS011;9280;50.276;18.650;2022-08-04T17:19:35;6.10;;;3.73;;
18308;SDS011;9280;50.276;18.650;2022-08-04T17:22:23;4.67;;;3.50;;
18308;SDS011;9280;50.276;18.650;2022-08-04T17:25:09;6.20;;;3.93;;
18308;SDS011;9280;50.276;18.650;2022-08-04T17:28:00;6.03;;;4.10;;
18308;SDS011;9280;50.276;18.650;2022-08-04T17:30:47;4.10;;;3.70;;
18308;SDS011;9280;50.276;18.650;2022-08-04T17:33:34;4.50;;;4.10;;
18308;SDS011;9280;50.276;18.650;2022-08-04T17:36:21;8.00;;;5.30;;
18308;SDS011;9280;50.276;18.650;2022-08-04T17:39:13;11.17;;;6.03;;
18308;SDS011;9280;50.276;18.650;2022-08-04T17:42:00;10.83;;;5.43;;